createdAt,value
2019-01-20T00:01:06.521Z,101393.66
2019-01-20T00:03:39.301Z,101393.41
2019-01-20T00:06:12.061Z,101394.04
2019-01-20T00:08:44.768Z,101388.80
2019-01-20T00:11:17.658Z,101388.64
2019-01-20T00:13:51.917Z,101386.48
2019-01-20T00:16:24.701Z,101390.08
2019-01-20T00:18:57.552Z,101387.98
2019-01-20T00:21:30.305Z,101391.02
2019-01-20T00:24:03.007Z,101391.57
2019-01-20T00:26:35.803Z,101385.53
2019-01-20T00:29:08.539Z,101377.31
2019-01-20T00:31:41.298Z,101381.84
2019-01-20T00:34:14.217Z,101378.27
2019-01-20T00:36:47.514Z,101380.40
2019-01-20T00:39:21.146Z,101382.97
2019-01-20T00:41:53.896Z,101378.58
2019-01-20T00:44:26.633Z,101378.77
2019-01-20T00:46:59.322Z,101376.53
2019-01-20T00:49:32.010Z,101381.50
2019-01-20T00:52:04.722Z,101378.94
2019-01-20T00:54:37.422Z,101380.39
2019-01-20T00:57:10.177Z,101374.52
2019-01-20T00:59:42.921Z,101381.26
2019-01-20T01:02:15.737Z,101378.69
2019-01-20T01:04:48.441Z,101381.67
2019-01-20T01:07:21.240Z,101379.74
2019-01-20T01:09:53.928Z,101377.30
2019-01-20T01:12:26.912Z,101376.44
2019-01-20T01:15:00.699Z,101371.70
2019-01-20T01:17:33.494Z,101378.14
2019-01-20T01:20:13.342Z,101376.92
2019-01-20T01:22:46.069Z,101381.69
2019-01-20T01:25:19.286Z,101379.23
2019-01-20T01:27:52.193Z,101379.02
2019-01-20T01:30:26.814Z,101375.91
2019-01-20T01:32:59.535Z,101372.59
2019-01-20T01:35:32.230Z,101373.62
2019-01-20T01:38:04.978Z,101374.09
2019-01-20T01:40:37.746Z,101375.42
2019-01-20T01:43:10.613Z,101372.59
2019-01-20T01:45:43.381Z,101378.85
2019-01-20T01:48:16.182Z,101375.75
2019-01-20T01:50:48.939Z,101374.30
2019-01-20T01:53:21.679Z,101378.71
2019-01-20T01:55:54.372Z,101378.27
2019-01-20T01:58:27.132Z,101372.50
2019-01-20T02:00:59.944Z,101373.65
2019-01-20T02:03:32.750Z,101373.97
2019-01-20T02:06:05.523Z,101370.16
2019-01-20T02:08:39.387Z,101368.33
2019-01-20T02:11:12.091Z,101368.94
2019-01-20T02:13:44.845Z,101368.46
2019-01-20T02:16:17.612Z,101361.34
2019-01-20T02:18:50.386Z,101361.44
2019-01-20T02:21:23.080Z,101352.45
2019-01-20T02:23:55.830Z,101348.05
2019-01-20T02:26:28.646Z,101341.73
2019-01-20T02:29:01.587Z,101345.57
2019-01-20T02:31:34.292Z,101346.78
2019-01-20T02:34:06.994Z,101344.49
2019-01-20T02:36:39.725Z,101340.64
2019-01-20T02:39:12.452Z,101341.66
2019-01-20T02:41:45.136Z,101340.12
2019-01-20T02:44:17.892Z,101337.23
2019-01-20T02:46:50.581Z,101342.27
2019-01-20T02:49:23.281Z,101340.23
2019-01-20T02:51:55.987Z,101345.70
2019-01-20T02:54:28.690Z,101344.11
2019-01-20T02:57:02.265Z,101336.80
2019-01-20T02:59:34.965Z,101339.17
2019-01-20T03:02:07.698Z,101339.17
2019-01-20T03:04:40.541Z,101337.99
2019-01-20T03:07:13.267Z,101332.88
2019-01-20T03:09:45.981Z,101332.77
2019-01-20T03:12:18.661Z,101335.06
2019-01-20T03:14:51.357Z,101337.15
2019-01-20T03:17:24.041Z,101334.13
2019-01-20T03:19:56.742Z,101327.09
2019-01-20T03:22:29.542Z,101326.80
2019-01-20T03:25:02.325Z,101325.25
2019-01-20T03:27:35.092Z,101324.05
2019-01-20T03:30:13.577Z,101324.80
2019-01-20T03:32:46.530Z,101330.48
2019-01-20T03:35:22.694Z,101328.84
2019-01-20T03:37:55.394Z,101330.17
2019-01-20T03:40:28.107Z,101328.02
2019-01-20T03:43:00.822Z,101327.30
2019-01-20T03:45:33.518Z,101320.95
2019-01-20T03:48:06.294Z,101319.60
2019-01-20T03:50:39.033Z,101323.67
2019-01-20T03:53:11.725Z,101321.86
2019-01-20T03:55:44.445Z,101318.27
2019-01-20T03:58:17.155Z,101313.47
2019-01-20T04:00:49.867Z,101308.59
2019-01-20T04:03:22.664Z,101309.41
2019-01-20T04:05:55.374Z,101313.89
2019-01-20T04:08:28.080Z,101316.52
2019-01-20T04:11:00.779Z,101316.65
2019-01-20T04:13:33.558Z,101304.32
2019-01-20T04:16:06.330Z,101313.80
2019-01-20T04:18:39.105Z,101307.38
2019-01-20T04:21:11.803Z,101309.69
2019-01-20T04:23:44.540Z,101302.52
2019-01-20T04:26:17.261Z,101302.63
2019-01-20T04:28:50.026Z,101308.66
2019-01-20T04:31:22.720Z,101308.05
2019-01-20T04:33:55.499Z,101303.63
2019-01-20T04:36:28.213Z,101307.66
2019-01-20T04:39:00.937Z,101305.78
2019-01-20T04:41:35.728Z,101306.95
2019-01-20T04:44:08.556Z,101307.69
2019-01-20T04:46:41.356Z,101303.39
2019-01-20T04:49:14.154Z,101308.73
2019-01-20T04:51:46.825Z,101310.63
2019-01-20T04:54:19.599Z,101312.38
2019-01-20T04:56:52.283Z,101304.45
2019-01-20T04:59:25.054Z,101301.98
2019-01-20T05:01:57.733Z,101305.66
2019-01-20T05:04:30.598Z,101303.19
2019-01-20T05:07:03.421Z,101303.55
2019-01-20T05:09:36.152Z,101305.03
2019-01-20T05:12:08.919Z,101305.68
2019-01-20T05:14:41.748Z,101306.49
2019-01-20T05:17:14.436Z,101310.04
2019-01-20T05:19:47.119Z,101306.72
2019-01-20T05:22:19.804Z,101307.23
2019-01-20T05:24:52.485Z,101307.59
2019-01-20T05:27:25.208Z,101305.03
2019-01-20T05:29:57.995Z,101309.38
2019-01-20T05:32:30.765Z,101298.98
2019-01-20T05:35:03.467Z,101303.06
2019-01-20T05:37:36.174Z,101297.41
2019-01-20T05:40:11.049Z,101302.18
2019-01-20T05:42:46.418Z,101304.14
2019-01-20T05:45:21.084Z,101305.86
2019-01-20T05:47:53.812Z,101305.38
2019-01-20T05:50:26.532Z,101303.14
2019-01-20T05:52:59.218Z,101300.30
2019-01-20T05:55:32.568Z,101302.27
2019-01-20T05:58:05.939Z,101290.33
2019-01-20T06:00:38.765Z,101297.23
2019-01-20T06:03:11.601Z,101295.13
2019-01-20T06:05:44.307Z,101286.31
2019-01-20T06:08:17.004Z,101296.16
2019-01-20T06:10:49.782Z,101293.08
2019-01-20T06:13:22.592Z,101296.89
2019-01-20T06:15:55.334Z,101298.27
2019-01-20T06:18:28.060Z,101297.64
2019-01-20T06:21:00.730Z,101293.63
2019-01-20T06:23:33.440Z,101292.58
2019-01-20T06:26:06.194Z,101290.89
2019-01-20T06:28:39.590Z,101296.36
2019-01-20T06:31:12.446Z,101292.02
2019-01-20T06:33:45.212Z,101291.71
2019-01-20T06:36:17.951Z,101294.37
2019-01-20T06:38:50.657Z,101288.33
2019-01-20T06:41:23.376Z,101293.48
2019-01-20T06:43:56.105Z,101290.09
2019-01-20T06:46:28.789Z,101287.14
2019-01-20T06:49:01.503Z,101295.58
2019-01-20T06:51:34.521Z,101294.48
2019-01-20T06:54:07.325Z,101297.42
2019-01-20T06:56:40.091Z,101308.66
2019-01-20T06:59:12.857Z,101304.75
2019-01-20T07:01:45.677Z,101305.66
2019-01-20T07:04:19.762Z,101308.16
2019-01-20T07:06:52.495Z,101305.78
2019-01-20T07:09:25.390Z,101307.80
2019-01-20T07:11:58.235Z,101313.89
2019-01-20T07:14:30.992Z,101318.29
2019-01-20T07:17:04.043Z,101321.27
2019-01-20T07:19:36.769Z,101324.77
2019-01-20T07:22:10.807Z,101326.31
2019-01-20T07:24:44.409Z,101330.53
2019-01-20T07:27:18.341Z,101331.30
2019-01-20T07:29:54.438Z,101336.77
2019-01-20T07:32:29.077Z,101341.17
2019-01-20T07:35:03.456Z,101342.73
2019-01-20T07:37:41.293Z,101347.22
2019-01-20T07:40:17.998Z,101352.25
2019-01-20T07:42:52.596Z,101341.76
2019-01-20T07:45:25.388Z,101339.17
2019-01-20T07:47:58.117Z,101350.89
2019-01-20T07:50:31.015Z,101354.41
2019-01-20T07:53:05.005Z,101348.80
2019-01-20T07:55:37.795Z,101342.02
2019-01-20T07:58:10.651Z,101354.38
2019-01-20T08:00:43.380Z,101357.80
2019-01-20T08:03:16.097Z,101358.22
2019-01-20T08:05:53.828Z,101356.67
2019-01-20T08:08:26.628Z,101365.42
2019-01-20T08:10:59.375Z,101367.95
2019-01-20T08:13:32.207Z,101368.69
2019-01-20T08:16:05.217Z,101364.89
2019-01-20T08:18:38.043Z,101363.55
2019-01-20T08:21:10.841Z,101368.97
2019-01-20T08:23:43.683Z,101370.30
2019-01-20T08:26:16.542Z,101365.69
2019-01-20T08:28:49.364Z,101365.67
2019-01-20T08:31:22.152Z,101364.09
2019-01-20T08:33:56.125Z,101366.47
2019-01-20T08:36:29.055Z,101366.48
2019-01-20T08:39:01.985Z,101366.66
2019-01-20T08:41:36.380Z,101376.16
2019-01-20T08:44:10.659Z,101378.77
2019-01-20T08:46:55.637Z,101370.05
2019-01-20T08:49:28.408Z,101365.84
2019-01-20T08:52:01.228Z,101373.30
2019-01-20T08:54:34.019Z,101375.42
2019-01-20T08:57:06.841Z,101363.77
2019-01-20T08:59:39.877Z,101364.07
2019-01-20T09:02:13.011Z,101359.61
2019-01-20T09:04:45.849Z,101370.97
2019-01-20T09:10:35.819Z,101370.09
2019-01-20T09:13:10.417Z,101367.86
2019-01-20T09:15:43.293Z,101368.80
2019-01-20T09:18:16.180Z,101370.41
2019-01-20T09:20:48.938Z,101371.48
2019-01-20T09:23:21.700Z,101372.73
2019-01-20T09:25:54.428Z,101366.73
2019-01-20T09:28:27.349Z,101370.06
2019-01-20T09:31:00.295Z,101368.24
2019-01-20T09:33:33.104Z,101364.97
2019-01-20T09:36:05.966Z,101367.66
2019-01-20T09:38:38.819Z,101374.13
2019-01-20T09:41:13.232Z,101371.91
2019-01-20T09:43:47.404Z,101363.51
2019-01-20T09:46:20.565Z,101323.73
2019-01-20T09:48:53.361Z,101330.65
2019-01-20T09:51:26.091Z,101325.08
2019-01-20T09:53:58.804Z,101322.05
2019-01-20T09:56:32.693Z,101340.72
2019-01-20T09:59:07.146Z,101336.37
2019-01-20T10:01:39.963Z,101338.35
2019-01-20T10:04:12.695Z,101334.70
2019-01-20T10:06:49.444Z,101330.93
2019-01-20T10:09:22.679Z,101334.02
2019-01-20T10:11:55.448Z,101343.81
2019-01-20T10:14:28.391Z,101342.73
2019-01-20T10:17:01.200Z,101352.41
2019-01-20T10:19:34.373Z,101351.42
2019-01-20T10:22:07.815Z,101339.42
2019-01-20T10:24:44.578Z,101338.70
2019-01-20T10:27:18.107Z,101344.40
2019-01-20T10:29:50.866Z,101351.71
2019-01-20T10:32:23.706Z,101335.74
2019-01-20T10:34:57.068Z,101338.78
2019-01-20T10:37:30.509Z,101331.63
2019-01-20T10:40:03.854Z,101342.34
2019-01-20T10:42:37.018Z,101332.78
2019-01-20T10:45:10.880Z,101333.38
2019-01-20T10:47:43.933Z,101330.38
2019-01-20T10:50:16.892Z,101330.78
2019-01-20T10:52:49.611Z,101331.64
2019-01-20T10:55:22.466Z,101334.41
2019-01-20T10:57:55.253Z,101329.50
2019-01-20T11:00:31.435Z,101331.46
2019-01-20T11:03:04.173Z,101327.08
2019-01-20T11:05:36.952Z,101319.78
2019-01-20T11:08:09.704Z,101322.52
2019-01-20T11:10:42.490Z,101326.81
2019-01-20T11:13:15.276Z,101322.96
2019-01-20T11:15:48.036Z,101320.78
2019-01-20T11:18:20.774Z,101331.91
2019-01-20T11:20:53.513Z,101322.63
2019-01-20T11:23:26.705Z,101320.11
2019-01-20T11:25:59.941Z,101318.05
2019-01-20T11:28:32.727Z,101329.61
2019-01-20T11:31:05.415Z,101327.48
2019-01-20T11:33:38.182Z,101329.19
2019-01-20T11:36:10.979Z,101314.77
2019-01-20T11:38:43.656Z,101335.05
2019-01-20T11:41:16.386Z,101334.17
2019-01-20T11:43:49.140Z,101327.52
2019-01-20T11:46:21.903Z,101319.33
2019-01-20T11:48:55.028Z,101311.37
2019-01-20T11:51:27.769Z,101320.02
2019-01-20T11:54:01.476Z,101311.49
2019-01-20T11:56:35.213Z,101316.73
2019-01-20T11:59:08.022Z,101313.80
2019-01-20T12:01:43.676Z,101322.47
2019-01-20T12:04:16.544Z,101316.98
2019-01-20T12:06:49.470Z,101307.73
2019-01-20T12:17:57.261Z,101303.09
2019-01-20T12:25:38.741Z,101309.88
2019-01-20T12:28:12.182Z,101312.21
2019-01-20T12:34:38.800Z,101305.53
2019-01-20T12:38:58.844Z,101298.73
2019-01-20T12:45:20.617Z,101321.13
2019-01-20T12:51:36.387Z,101330.50
2019-01-20T12:54:37.960Z,101328.89
2019-01-20T12:57:36.962Z,101327.98
2019-01-20T13:00:21.117Z,101317.66
2019-01-20T13:02:55.486Z,101328.91
2019-01-20T13:07:33.847Z,101325.25
2019-01-20T13:09:45.182Z,101328.77
2019-01-20T13:12:21.830Z,101325.75
2019-01-20T13:17:54.237Z,101333.33
2019-01-20T13:20:45.891Z,101332.88
2019-01-20T13:23:23.145Z,101337.12
2019-01-20T13:25:55.956Z,101340.92
2019-01-20T13:28:31.072Z,101333.36
2019-01-20T13:31:49.602Z,101338.16
2019-01-20T13:34:35.076Z,101338.08
2019-01-20T13:37:08.038Z,101342.20
2019-01-20T13:39:40.877Z,101346.01
2019-01-20T13:42:52.475Z,101349.58
2019-01-20T13:45:58.768Z,101347.81
2019-01-20T13:49:14.450Z,101355.74
2019-01-20T13:51:47.255Z,101346.04
2019-01-20T13:54:20.108Z,101338.87
2019-01-20T13:56:52.858Z,101351.55
2019-01-20T13:59:25.585Z,101358.63
2019-01-20T14:01:58.342Z,101354.02
2019-01-20T14:04:31.029Z,101352.53
2019-01-20T14:07:03.737Z,101354.04
2019-01-20T14:09:36.513Z,101354.40
2019-01-20T14:12:09.224Z,101364.27
2019-01-20T14:14:42.044Z,101364.48
2019-01-20T14:17:14.835Z,101353.29
2019-01-20T14:19:49.406Z,101352.56
2019-01-20T14:22:22.347Z,101359.88
2019-01-20T14:24:55.385Z,101367.59
2019-01-20T14:27:28.230Z,101355.08
2019-01-20T14:30:01.089Z,101357.94
2019-01-20T14:32:33.961Z,101364.48
2019-01-20T14:35:07.784Z,101359.16
2019-01-20T14:37:47.266Z,101357.42
2019-01-20T14:40:20.162Z,101348.44
2019-01-20T14:42:53.071Z,101355.53
2019-01-20T14:45:25.835Z,101373.13
2019-01-20T14:48:02.256Z,101373.89
2019-01-20T14:50:38.339Z,101370.61
2019-01-20T14:53:11.112Z,101374.80
2019-01-20T14:55:43.808Z,101379.84
2019-01-20T14:58:25.829Z,101374.88
2019-01-20T15:00:58.539Z,101381.38
2019-01-20T15:03:31.230Z,101384.91
2019-01-20T15:06:03.911Z,101383.50
2019-01-20T15:08:36.692Z,101381.80
2019-01-20T15:11:09.537Z,101387.80
2019-01-20T15:13:42.220Z,101394.20
2019-01-20T15:16:14.877Z,101385.68
2019-01-20T15:18:47.551Z,101392.91
2019-01-20T15:21:20.257Z,101393.55
2019-01-20T15:23:52.978Z,101404.47
2019-01-20T15:26:25.761Z,101402.94
2019-01-20T15:28:58.469Z,101402.59
2019-01-20T15:31:31.184Z,101402.13
2019-01-20T15:34:03.834Z,101411.23
2019-01-20T15:36:36.590Z,101404.27
2019-01-20T15:39:10.302Z,101406.30
2019-01-20T15:41:43.072Z,101399.25
2019-01-20T15:44:17.337Z,101395.52
2019-01-20T15:46:50.017Z,101397.09
2019-01-20T15:49:23.868Z,101394.77
2019-01-20T15:51:56.589Z,101397.66
2019-01-20T15:54:29.340Z,101402.55
2019-01-20T15:57:02.048Z,101396.34
2019-01-20T15:59:35.900Z,101398.39
2019-01-20T16:02:08.811Z,101405.98
2019-01-20T16:04:41.528Z,101416.17
2019-01-20T16:07:14.237Z,101417.98
2019-01-20T16:09:47.050Z,101425.25
2019-01-20T16:12:19.850Z,101427.11
2019-01-20T16:15:24.689Z,101428.40
2019-01-20T16:18:08.650Z,101434.23
2019-01-20T16:20:41.513Z,101432.05
2019-01-20T16:23:14.244Z,101434.97
2019-01-20T16:25:46.969Z,101433.48
2019-01-20T16:28:19.691Z,101439.97
2019-01-20T16:30:52.412Z,101446.17
2019-01-20T16:33:25.180Z,101436.77
2019-01-20T16:35:57.913Z,101441.73
2019-01-20T16:38:31.781Z,101449.53
2019-01-20T16:41:04.554Z,101438.94
2019-01-20T16:43:37.261Z,101441.50
2019-01-20T16:46:10.008Z,101432.63
2019-01-20T16:48:42.817Z,101437.00
2019-01-20T16:51:15.610Z,101434.98
2019-01-20T16:53:48.373Z,101437.25
2019-01-20T16:56:21.094Z,101440.09
2019-01-20T16:59:50.094Z,101442.64
2019-01-20T17:02:22.769Z,101448.30
2019-01-20T17:05:14.006Z,101440.21
2019-01-20T17:08:00.991Z,101451.13
2019-01-20T17:10:36.821Z,101455.83
2019-01-20T17:13:11.076Z,101455.45
2019-01-20T17:15:46.247Z,101454.25
2019-01-20T17:18:18.982Z,101458.30
2019-01-20T17:20:51.693Z,101467.80
2019-01-20T17:23:24.517Z,101472.42
2019-01-20T17:25:57.299Z,101476.69
2019-01-20T17:28:30.012Z,101477.33
2019-01-20T17:31:02.766Z,101482.44
2019-01-20T17:33:35.561Z,101485.00
2019-01-20T17:36:08.391Z,101485.70
2019-01-20T17:38:41.126Z,101488.38
2019-01-20T17:41:14.939Z,101485.75
2019-01-20T17:43:47.683Z,101481.96
2019-01-20T17:46:20.397Z,101489.48
2019-01-20T17:48:53.858Z,101486.42
2019-01-20T17:51:26.642Z,101491.05
2019-01-20T17:53:59.373Z,101488.42
2019-01-20T17:56:32.079Z,101486.70
2019-01-20T17:59:04.811Z,101491.80
2019-01-20T18:01:40.665Z,101511.68
2019-01-20T18:04:13.509Z,101513.78
2019-01-20T18:07:42.122Z,101516.21
2019-01-20T18:10:14.913Z,101516.41
2019-01-20T18:12:47.652Z,101525.41
2019-01-20T18:27:52.655Z,101531.44
2019-01-20T18:30:26.696Z,101540.77
2019-01-20T18:32:59.410Z,101540.14
2019-01-20T18:35:32.167Z,101548.28
2019-01-20T18:38:20.062Z,101550.05
2019-01-20T18:40:57.138Z,101546.94
2019-01-20T18:43:44.986Z,101549.59
2019-01-20T18:46:36.771Z,101552.03
2019-01-20T18:49:17.143Z,101549.68
2019-01-20T18:52:10.580Z,101556.34
2019-01-20T18:54:44.355Z,101556.89
2019-01-20T18:58:02.417Z,101558.67
2019-01-20T19:00:43.328Z,101563.02
2019-01-20T19:03:39.326Z,101558.34
2019-01-20T19:06:13.182Z,101561.68
2019-01-20T19:09:14.088Z,101562.77
2019-01-20T19:12:24.827Z,101563.73
2019-01-20T19:15:27.763Z,101561.91
2019-01-20T19:18:02.147Z,101570.20
2019-01-20T19:20:40.969Z,101560.02
2019-01-20T19:27:00.815Z,101563.64
2019-01-20T19:29:56.393Z,101557.05
2019-01-20T19:32:55.174Z,101559.53
2019-01-20T19:35:28.449Z,101563.86
2019-01-20T19:38:01.353Z,101572.44
2019-01-20T19:40:59.901Z,101584.77
2019-01-20T19:43:39.029Z,101578.47
2019-01-20T19:49:58.380Z,101585.41
2019-01-20T19:52:31.202Z,101574.97
2019-01-20T19:55:30.857Z,101574.14
2019-01-20T19:58:28.105Z,101577.98
2019-01-20T20:01:10.611Z,101567.74
2019-01-20T20:03:43.521Z,101584.77
2019-01-20T20:06:16.358Z,101586.45
2019-01-20T20:09:15.809Z,101579.44
2019-01-20T20:12:04.064Z,101575.70
2019-01-20T20:14:37.108Z,101581.23
2019-01-20T20:17:16.678Z,101591.58
2019-01-20T20:20:51.618Z,101593.86
2019-01-20T20:23:37.675Z,101601.68
2019-01-20T20:26:12.941Z,101605.69
2019-01-20T20:28:49.190Z,101604.41
2019-01-20T20:31:22.191Z,101607.34
2019-01-20T20:33:55.060Z,101605.19
2019-01-20T20:36:27.888Z,101602.83
2019-01-20T20:39:00.638Z,101604.41
2019-01-20T20:41:34.959Z,101613.95
2019-01-20T20:44:07.896Z,101611.91
2019-01-20T20:46:40.673Z,101613.16
2019-01-20T20:49:13.369Z,101619.38
2019-01-20T20:51:46.044Z,101629.48
2019-01-20T20:54:18.892Z,101630.86
2019-01-20T20:56:57.626Z,101631.72
2019-01-20T20:59:33.304Z,101628.84
2019-01-20T21:02:25.353Z,101636.73
2019-01-20T21:05:04.123Z,101638.83
2019-01-20T21:07:38.703Z,101644.84
2019-01-20T21:10:15.692Z,101654.91
2019-01-20T21:12:48.744Z,101659.80
2019-01-20T21:15:33.581Z,101659.21
2019-01-20T21:18:26.241Z,101674.40
2019-01-20T21:21:14.329Z,101674.86
2019-01-20T21:23:49.972Z,101664.41
2019-01-20T21:26:26.373Z,101666.39
2019-01-20T21:29:00.222Z,101661.38
2019-01-20T21:31:33.944Z,101681.66
2019-01-20T21:34:08.308Z,101686.03
2019-01-20T21:36:41.108Z,101688.96
2019-01-20T21:39:13.869Z,101690.55
2019-01-20T21:41:46.602Z,101680.63
2019-01-20T21:44:19.277Z,101676.33
2019-01-20T21:46:52.025Z,101679.56
2019-01-20T21:49:24.703Z,101694.66
2019-01-20T21:51:57.449Z,101700.95
2019-01-20T21:54:30.271Z,101696.98
2019-01-20T21:59:19.471Z,101697.84
2019-01-20T22:05:18.580Z,101703.17
2019-01-20T22:08:39.822Z,101705.64
2019-01-20T22:11:14.663Z,101704.25
2019-01-20T22:13:58.745Z,101708.92
2019-01-20T22:17:08.481Z,101705.71
2019-01-20T22:19:48.686Z,101705.55
2019-01-20T22:22:25.955Z,101718.61
2019-01-20T22:25:30.043Z,101722.61
2019-01-20T22:28:33.786Z,101715.34
2019-01-20T22:31:39.244Z,101720.11
2019-01-20T22:34:48.282Z,101725.72
2019-01-20T22:37:48.483Z,101727.39
2019-01-20T22:44:06.170Z,101719.06
2019-01-20T22:46:39.179Z,101718.66
2019-01-20T22:49:12.089Z,101718.32
2019-01-20T22:51:59.469Z,101719.06
2019-01-20T22:55:04.066Z,101717.88
2019-01-20T22:57:40.290Z,101712.23
2019-01-20T23:00:44.175Z,101720.69
2019-01-20T23:03:17.924Z,101720.67
2019-01-20T23:05:53.460Z,101719.52
2019-01-20T23:08:26.539Z,101722.17
2019-01-20T23:10:59.215Z,101721.63
2019-01-20T23:13:31.945Z,101718.24
2019-01-20T23:16:04.699Z,101719.95
2019-01-20T23:18:37.466Z,101721.60
2019-01-20T23:21:10.238Z,101718.23
2019-01-20T23:24:10.771Z,101722.05
2019-01-20T23:27:35.320Z,101718.74
2019-01-20T23:30:50.179Z,101717.45
2019-01-20T23:36:58.135Z,101715.27
2019-01-20T23:39:51.168Z,101711.45
2019-01-20T23:43:01.389Z,101721.43
2019-01-20T23:45:36.633Z,101722.94
2019-01-20T23:48:10.263Z,101722.88
2019-01-20T23:50:43.224Z,101729.80
2019-01-20T23:53:15.974Z,101724.52
2019-01-20T23:55:48.678Z,101730.86
2019-01-20T23:58:21.386Z,101729.27
